Kriti Spirit — D5FU7 — position and weather

sailwx.info

Track history (hours):
 
Tides and Currents Weather Stations Pressure Air Temp Water Temp Dewpoint Dewpoint Depression Visibility Wind Speed Wind Dir Waves Ship Positions

Kriti Spirit

Last reported at 2017-Sep-11 08:53 UTC. Time now 2017-Sep-19 22:39 UTC.
Position N 30°49' E 032°19'.
Warning: this ship's position is 8 days out of date.

Length 274 m; draft 15.5 m.

Type: Tanker. MMSI: 636016367.

Date/timePositionNaut miles runAvg speedWind from/ knotsBaromVisibWave heightAir tempDewpointWater temp
2017-Sep-11 08:53N 30°49' E 032°19'3 8.8
2017-Sep-11 08:30N 30°52' E 032°19'4 8.7
2017-Sep-11 08:00N 30°57' E 032°19'13 8.8
2017-Sep-11 06:29N 31°10' E 032°20'4 6.0
2017-Sep-11 05:47N 31°14' E 032°21'4 6.9
2017-Sep-11 05:13N 31°18' E 032°22'2 8.5
2017-Sep-11 05:00N 31°19' E 032°22'4 7.6
2017-Sep-11 04:29N 31°23' E 032°24'4 7.0
2017-Sep-11 03:58N 31°27' E 032°24'4 5.5
2017-Sep-11 03:10N 31°28' E 032°19'0 0.1
2017-Sep-11 01:06N 31°28' E 032°19'0 0.1
2017-Sep-11 01:00N 31°28' E 032°19'0 0.0
2017-Sep-11 00:18N 31°28' E 032°19'0 0.0
2017-Sep-11 00:00N 31°28' E 032°19'0 0.0
2017-Sep-10 20:51N 31°28' E 032°19'0 0.0
2017-Sep-10 20:30N 31°28' E 032°19'0 0.0
2017-Sep-10 18:12N 31°28' E 032°19'0 0.0
2017-Sep-10 17:54N 31°28' E 032°19'0 0.0
2017-Sep-10 17:24N 31°28' E 032°19'0 0.0
2017-Sep-10 16:48N 31°28' E 032°19'0 0.0
2017-Sep-10 16:12N 31°28' E 032°19'0 0.0
2017-Sep-10 15:48N 31°28' E 032°19'0 0.0
2017-Sep-10 15:21N 31°28' E 032°19'0 0.0
2017-Sep-10 13:54N 31°28' E 032°19'0 0.0
2017-Sep-10 11:33N 31°28' E 032°19'0 0.0
2017-Sep-10 11:30N 31°28' E 032°19'0 0.0
2017-Sep-10 10:54N 31°28' E 032°19'0 0.0
2017-Sep-10 09:54N 31°28' E 032°19'71 5.4
2017-Sep-09 20:44N 32°29' E 032°59'312.4
2017-Sep-09 20:31N 32°32' E 033°01'612.3
2017-Sep-09 20:00N 32°37' E 033°04'1412.3
2017-Sep-09 18:53N 32°49' E 033°12'2612.6
2017-Sep-09 16:50N 33°12' E 033°26'12712.7
2017-Sep-09 06:50N 35°05' E 034°39'412.6
2017-Sep-09 06:31N 35°08' E 034°41'1613.1
2017-Sep-09 05:19N 35°22' E 034°50'  
2017-Sep-03 12:21N 36°21' E 035°08'0 0.0
2017-Sep-03 11:57N 36°21' E 035°08'0 0.0
2017-Sep-03 11:30N 36°21' E 035°08'  
Track history (hours):
 
Tides and Currents Weather Stations Pressure Air Temp Water Temp Dewpoint Dewpoint Depression Visibility Wind Speed Wind Dir Waves Ship Positions

Kriti Spirit

Last reported at 2017-Sep-11 08:53 UTC. Time now 2017-Sep-19 22:39 UTC.
Position N 30°49' E 032°19'.
Warning: this ship's position is 8 days out of date.

Length 274 m; draft 15.5 m.

Type: Tanker. MMSI: 636016367.

Date/timePositionNaut miles runAvg speedWind from/ knotsBaromVisibWave heightAir tempDewpointWater temp
2017-Sep-11 08:53N 30°49' E 032°19'3 8.8
2017-Sep-11 08:30N 30°52' E 032°19'4 8.7
2017-Sep-11 08:00N 30°57' E 032°19'13 8.8
2017-Sep-11 06:29N 31°10' E 032°20'4 6.0
2017-Sep-11 05:47N 31°14' E 032°21'4 6.9
2017-Sep-11 05:13N 31°18' E 032°22'2 8.5
2017-Sep-11 05:00N 31°19' E 032°22'4 7.6
2017-Sep-11 04:29N 31°23' E 032°24'4 7.0
2017-Sep-11 03:58N 31°27' E 032°24'4 5.5
2017-Sep-11 03:10N 31°28' E 032°19'0 0.1
2017-Sep-11 01:06N 31°28' E 032°19'0 0.1
2017-Sep-11 01:00N 31°28' E 032°19'0 0.0
2017-Sep-11 00:18N 31°28' E 032°19'0 0.0
2017-Sep-11 00:00N 31°28' E 032°19'0 0.0
2017-Sep-10 20:51N 31°28' E 032°19'0 0.0
2017-Sep-10 20:30N 31°28' E 032°19'0 0.0
2017-Sep-10 18:12N 31°28' E 032°19'0 0.0
2017-Sep-10 17:54N 31°28' E 032°19'0 0.0
2017-Sep-10 17:24N 31°28' E 032°19'0 0.0
2017-Sep-10 16:48N 31°28' E 032°19'0 0.0
2017-Sep-10 16:12N 31°28' E 032°19'0 0.0
2017-Sep-10 15:48N 31°28' E 032°19'0 0.0
2017-Sep-10 15:21N 31°28' E 032°19'0 0.0
2017-Sep-10 13:54N 31°28' E 032°19'0 0.0
2017-Sep-10 11:33N 31°28' E 032°19'0 0.0
2017-Sep-10 11:30N 31°28' E 032°19'0 0.0
2017-Sep-10 10:54N 31°28' E 032°19'0 0.0
2017-Sep-10 09:54N 31°28' E 032°19'71 5.4
2017-Sep-09 20:44N 32°29' E 032°59'312.4
2017-Sep-09 20:31N 32°32' E 033°01'612.3
2017-Sep-09 20:00N 32°37' E 033°04'1412.3
2017-Sep-09 18:53N 32°49' E 033°12'2612.6
2017-Sep-09 16:50N 33°12' E 033°26'12712.7
2017-Sep-09 06:50N 35°05' E 034°39'412.6
2017-Sep-09 06:31N 35°08' E 034°41'1613.1
2017-Sep-09 05:19N 35°22' E 034°50'  
2017-Sep-03 12:21N 36°21' E 035°08'0 0.0
2017-Sep-03 11:57N 36°21' E 035°08'0 0.0
2017-Sep-03 11:30N 36°21' E 035°08'  

Dump ship's entire track history